Time;durP1;ratioP1;P1;durP2;ratioP2;P2;SDS_P1;SDS_P2;PMS_P1;PMS_P2;Temp;Humidity;BMP_temperature;BMP_pressure;BME280_temperature;BME280_humidity;BME280_pressure;Samples;Min_cycle;Max_cycle;Signal;HPM_P1;HPM_P2
2021/01/26 00:01:02;;;;;;;15.77;8.40;;;-0.10;99.90;;;;;;5011299;28;20034;-89
2021/01/26 00:03:28;;;;;;;13.50;7.80;;;-0.10;99.90;;;;;;5010040;28;20083;-89
2021/01/26 00:05:53;;;;;;;10.17;6.57;;;-0.10;99.90;;;;;;5007121;28;20117;-89
2021/01/26 00:08:20;;;;;;;10.90;6.17;;;0.00;99.90;;;;;;5013610;28;20479;-88
2021/01/26 00:10:46;;;;;;;10.03;6.00;;;0.00;99.90;;;;;;5014095;28;20030;-89
2021/01/26 00:13:12;;;;;;;11.20;6.27;;;-0.10;99.90;;;;;;5012012;28;20459;-89
2021/01/26 00:15:38;;;;;;;11.57;6.80;;;-0.10;99.90;;;;;;5008836;28;20506;-89
2021/01/26 00:18:05;;;;;;;10.97;6.27;;;-0.10;99.90;;;;;;5011339;28;20030;-89
2021/01/26 00:20:31;;;;;;;12.00;7.00;;;-0.10;99.90;;;;;;5015954;28;20025;-88
2021/01/26 00:22:57;;;;;;;11.43;6.63;;;-0.20;99.90;;;;;;5015311;28;20498;-88
2021/01/26 00:25:32;;;;;;;10.73;6.27;;;-0.20;99.90;;;;;;5014542;28;20029;-89
2021/01/26 00:27:57;;;;;;;14.00;7.50;;;-0.20;99.90;;;;;;5012774;28;20022;-88
2021/01/26 00:30:28;;;;;;;11.60;7.30;;;-0.30;99.90;;;;;;5011747;28;20125;-88
2021/01/26 00:32:55;;;;;;;12.67;7.83;;;-0.30;99.90;;;;;;5011222;28;20084;-88
2021/01/26 00:35:22;;;;;;;13.97;8.00;;;-0.30;99.90;;;;;;5014891;28;20474;-88
2021/01/26 00:37:49;;;;;;;11.00;6.57;;;-0.40;99.90;;;;;;5006138;28;20022;-89
2021/01/26 00:40:16;;;;;;;11.87;6.93;;;-0.30;99.90;;;;;;5012871;28;20479;-89
2021/01/26 00:42:42;;;;;;;14.03;7.43;;;-0.40;99.90;;;;;;5006267;28;20033;-88
2021/01/26 02:54:42;;;;;;;10.87;5.70;;;-0.70;99.90;;;;;;5031941;28;20079;-86
2021/01/26 02:57:28;;;;;;;12.23;6.57;;;-0.70;99.90;;;;;;5026828;28;20065;-86
2021/01/26 03:00:17;;;;;;;10.73;5.60;;;-0.70;99.90;;;;;;5029575;28;20021;-86
2021/01/26 03:02:57;;;;;;;14.80;6.67;;;-0.70;99.90;;;;;;5022838;28;20033;-86
2021/01/26 03:05:33;;;;;;;11.37;5.97;;;-0.70;99.90;;;;;;5030334;28;20091;-85
2021/01/26 03:08:04;;;;;;;12.57;6.30;;;-0.70;99.90;;;;;;5029110;28;20050;-86
2021/01/26 03:10:44;;;;;;;12.57;6.10;;;-0.60;99.90;;;;;;5029962;28;20014;-86
2021/01/26 03:13:13;;;;;;;12.97;6.17;;;-0.60;99.90;;;;;;5024247;28;20024;-85
2021/01/26 03:15:46;;;;;;;13.43;6.53;;;-0.60;99.90;;;;;;5029924;28;20096;-85
2021/01/26 03:18:15;;;;;;;13.52;6.68;;;-0.70;99.90;;;;;;5027918;28;20053;-86
2021/01/26 03:20:50;;;;;;;12.07;6.83;;;-0.80;99.90;;;;;;5029707;28;20028;-86
2021/01/26 03:23:21;;;;;;;12.60;7.30;;;-0.80;99.90;;;;;;5031025;28;20028;-86
2021/01/26 03:25:51;;;;;;;13.53;6.93;;;-0.90;99.90;;;;;;5027967;28;20022;-86
2021/01/26 03:28:21;;;;;;;16.27;7.93;;;-1.00;99.90;;;;;;5030867;28;20371;-86
2021/01/26 03:30:50;;;;;;;13.30;7.37;;;-1.00;99.90;;;;;;5036627;28;20104;-86
2021/01/26 03:33:24;;;;;;;12.67;7.03;;;-1.00;99.90;;;;;;5036459;28;20482;-85
2021/01/26 03:35:50;;;;;;;13.97;7.10;;;-1.10;99.90;;;;;;5036759;28;20026;-86
2021/01/26 03:38:20;;;;;;;14.83;7.00;;;-1.10;99.90;;;;;;5031445;28;20079;-86
2021/01/26 03:40:46;;;;;;;14.87;7.63;;;-1.10;99.90;;;;;;5035601;28;20437;-86
2021/01/26 03:43:11;;;;;;;15.83;7.83;;;-1.10;99.90;;;;;;5032322;28;20073;-85
2021/01/26 03:45:37;;;;;;;16.40;8.00;;;-1.20;99.90;;;;;;5031838;28;20501;-85
2021/01/26 03:48:14;;;;;;;15.47;7.10;;;-1.10;99.90;;;;;;5037245;28;20025;-85
2021/01/26 03:50:45;;;;;;;17.23;8.33;;;-1.10;99.90;;;;;;5031293;28;20022;-86
2021/01/26 03:53:38;;;;;;;16.60;8.43;;;-1.20;99.90;;;;;;5035366;28;20036;-86
2021/01/26 03:56:31;;;;;;;14.47;7.97;;;-1.10;99.90;;;;;;5034776;28;20026;-87
2021/01/26 03:59:21;;;;;;;11.98;6.28;;;-1.10;99.90;;;;;;5035915;28;20029;-87
2021/01/26 04:02:13;;;;;;;16.93;7.77;;;-1.20;99.90;;;;;;5032372;28;20171;-86
2021/01/26 04:04:51;;;;;;;14.77;7.27;;;-1.20;99.90;;;;;;5033820;28;20051;-86
2021/01/26 04:07:41;;;;;;;11.73;5.87;;;-1.20;99.90;;;;;;5026395;28;20026;-86
2021/01/26 04:10:20;;;;;;;15.10;7.63;;;-1.10;99.90;;;;;;5052159;28;20108;-86
2021/01/26 04:12:50;;;;;;;14.97;7.87;;;-1.00;99.90;;;;;;5029847;28;20065;-86
2021/01/26 04:15:35;;;;;;;15.60;8.07;;;-1.10;99.90;;;;;;5035395;28;20112;-86
2021/01/26 04:18:01;;;;;;;17.97;8.77;;;-1.20;99.90;;;;;;5031518;28;20094;-86
2021/01/26 04:20:33;;;;;;;14.13;7.70;;;-1.20;99.90;;;;;;5034794;28;20034;-86
2021/01/26 04:23:00;;;;;;;11.75;6.53;;;-1.20;99.90;;;;;;5025760;28;20157;-87
2021/01/26 04:25:43;;;;;;;15.10;7.90;;;-1.20;99.90;;;;;;5034632;28;20029;-86
2021/01/26 04:28:34;;;;;;;15.70;8.30;;;-1.20;99.90;;;;;;5031241;28;20085;-87
2021/01/26 04:30:59;;;;;;;14.97;8.40;;;-1.10;99.90;;;;;;5037227;28;20022;-85
2021/01/26 04:33:25;;;;;;;20.83;9.00;;;-1.00;99.90;;;;;;5038214;28;20032;-86
2021/01/26 04:35:51;;;;;;;13.37;6.27;;;-1.00;99.90;;;;;;5037683;28;20516;-86
2021/01/26 04:38:16;;;;;;;12.20;6.07;;;-1.00;99.90;;;;;;5036874;28;20033;-86
2021/01/26 04:40:42;;;;;;;14.50;8.03;;;-1.00;99.90;;;;;;5025147;28;20557;-85
2021/01/26 04:43:11;;;;;;;14.73;8.33;;;-0.90;99.90;;;;;;5033802;28;20489;-85
2021/01/26 04:45:49;;;;;;;14.07;7.90;;;-0.90;99.90;;;;;;5029684;28;20026;-87
2021/01/26 04:48:32;;;;;;;12.40;6.27;;;-0.90;99.90;;;;;;5033956;28;20512;-86
2021/01/26 04:51:08;;;;;;;12.83;6.53;;;-0.80;99.90;;;;;;5029117;28;20018;-86
2021/01/26 04:54:11;;;;;;;13.73;7.10;;;-0.80;99.90;;;;;;5029640;28;20034;-85
2021/01/26 04:56:45;;;;;;;9.97;4.87;;;-0.70;99.90;;;;;;5029620;28;20029;-86
2021/01/26 04:59:34;;;;;;;16.57;7.63;;;-0.70;99.90;;;;;;5033022;28;20064;-86
2021/01/26 05:02:18;;;;;;;13.00;6.60;;;-0.60;99.90;;;;;;5028921;28;20056;-85
2021/01/26 05:04:48;;;;;;;13.33;5.40;;;-0.60;99.90;;;;;;5028672;28;20033;-86
2021/01/26 05:07:22;;;;;;;13.13;6.77;;;-0.50;99.90;;;;;;5027588;28;20026;-85
2021/01/26 05:10:03;;;;;;;12.00;6.10;;;-0.50;99.90;;;;;;5027493;28;20013;-86
2021/01/26 05:12:36;;;;;;;11.87;5.13;;;-0.40;99.90;;;;;;5028594;28;20014;-87
2021/01/26 05:15:02;;;;;;;;;;;-0.40;99.90;;;;;;5028177;28;20028;-87
2021/01/26 05:17:45;;;;;;;15.33;5.87;;;-0.30;99.90;;;;;;5026603;28;20000;-86
2021/01/26 05:20:11;;;;;;;10.97;5.63;;;-0.30;99.90;;;;;;5026081;28;20032;-85
2021/01/26 05:22:58;;;;;;;11.10;5.70;;;-0.30;99.90;;;;;;5032833;28;20026;-86
2021/01/26 05:25:24;;;;;;;12.80;6.87;;;-0.30;99.90;;;;;;5024692;28;20023;-86
2021/01/26 05:27:51;;;;;;;12.10;6.67;;;-0.30;99.90;;;;;;5031695;28;20032;-86
2021/01/26 05:30:28;;;;;;;12.17;5.83;;;-0.30;99.90;;;;;;5024094;28;20029;-86
2021/01/26 05:32:56;;;;;;;13.30;6.70;;;-0.30;99.90;;;;;;5031683;28;20482;-86
2021/01/26 05:35:22;;;;;;;11.97;6.07;;;-0.30;99.90;;;;;;5029947;28;20095;-86
2021/01/26 05:37:50;;;;;;;10.87;5.23;;;-0.30;99.90;;;;;;5032854;28;20507;-87
2021/01/26 05:40:24;;;;;;;11.63;5.77;;;-0.30;99.90;;;;;;5032344;28;20033;-86
2021/01/26 05:42:53;;;;;;;12.70;6.47;;;-0.30;99.90;;;;;;5031099;28;20486;-86
2021/01/26 05:45:21;;;;;;;12.47;5.90;;;-0.30;99.90;;;;;;5028259;28;20112;-86
2021/01/26 05:47:46;;;;;;;13.43;5.67;;;-0.30;99.90;;;;;;5032957;28;20378;-87
2021/01/26 05:50:25;;;;;;;9.77;4.70;;;-0.30;99.90;;;;;;5030821;28;20025;-87
2021/01/26 05:52:51;;;;;;;10.67;5.57;;;-0.30;99.90;;;;;;5030728;28;20025;-87
2021/01/26 05:55:23;;;;;;;8.83;5.03;;;-0.30;99.90;;;;;;5033167;28;20398;-87
2021/01/26 05:57:50;;;;;;;13.20;5.33;;;-0.30;99.90;;;;;;5029867;28;20367;-87
2021/01/26 06:00:25;;;;;;;12.37;5.50;;;-0.30;99.90;;;;;;5018728;28;20454;-87
2021/01/26 06:03:14;;;;;;;11.87;6.00;;;-0.30;99.90;;;;;;5026809;28;20053;-88
2021/01/26 06:05:40;;;;;;;9.60;4.47;;;-0.20;99.90;;;;;;5022250;28;20137;-87
2021/01/26 06:08:14;;;;;;;10.47;5.13;;;-0.20;99.90;;;;;;5025312;28;20018;-88
2021/01/26 06:10:48;;;;;;;12.30;4.07;;;-0.20;99.90;;;;;;5021696;28;20053;-88
2021/01/26 06:13:25;;;;;;;11.80;5.10;;;-0.20;99.90;;;;;;5031974;28;20033;-87
2021/01/26 06:16:10;;;;;;;14.03;4.20;;;-0.20;99.90;;;;;;5031950;28;20136;-87
2021/01/26 06:18:37;;;;;;;7.93;3.43;;;-0.20;99.90;;;;;;5018075;28;20057;-88
2021/01/26 06:21:09;;;;;;;12.87;5.30;;;-0.20;99.90;;;;;;5028559;28;20034;-87
2021/01/26 06:23:36;;;;;;;13.50;4.80;;;-0.20;99.90;;;;;;5023794;28;20052;-88
2021/01/26 06:26:10;;;;;;;9.37;4.17;;;-0.20;99.90;;;;;;5024554;28;20048;-87
2021/01/26 06:28:38;;;;;;;8.47;4.50;;;-0.20;99.90;;;;;;5032064;28;20018;-87
2021/01/26 06:31:18;;;;;;;11.00;4.70;;;-0.20;99.90;;;;;;5022581;28;20017;-87
2021/01/26 06:34:15;;;;;;;10.90;4.60;;;-0.20;99.90;;;;;;5023897;28;20056;-86
2021/01/26 06:36:56;;;;;;;10.93;4.27;;;-0.20;99.90;;;;;;5023442;28;20037;-86
2021/01/26 06:40:17;;;;;;;9.83;4.17;;;-0.20;99.90;;;;;;5038129;28;20022;-85
2021/01/26 06:42:51;;;;;;;8.80;4.70;;;-0.10;99.90;;;;;;4967073;28;20030;-85
2021/01/26 06:45:36;;;;;;;8.17;4.20;;;-0.20;99.90;;;;;;5052245;22;21327;-87
2021/01/26 06:48:10;;;;;;;8.93;4.17;;;-0.10;99.90;;;;;;5045858;28;20067;-87
2021/01/26 06:51:02;;;;;;;9.97;4.23;;;-0.10;99.90;;;;;;5038749;28;20025;-87
2021/01/26 06:54:08;;;;;;;6.95;3.15;;;-0.10;99.90;;;;;;5045757;28;20031;-87
2021/01/26 06:56:55;;;;;;;8.97;4.23;;;-0.10;99.90;;;;;;5045823;28;20066;-87
2021/01/26 06:59:59;;;;;;;8.87;3.77;;;-0.10;99.90;;;;;;5050857;28;20125;-87
2021/01/26 07:02:57;;;;;;;9.17;4.23;;;-0.10;99.90;;;;;;5047990;28;20025;-87
2021/01/26 07:05:37;;;;;;;10.10;4.37;;;-0.10;99.90;;;;;;5061459;28;20111;-87
2021/01/26 07:08:05;;;;;;;8.57;3.67;;;-0.10;99.90;;;;;;5054837;28;20055;-87
2021/01/26 07:10:53;;;;;;;7.60;3.63;;;-0.10;99.90;;;;;;5052856;28;20032;-87
2021/01/26 07:13:40;;;;;;;10.27;3.80;;;-0.10;99.90;;;;;;5060383;28;20541;-86
2021/01/26 07:16:11;;;;;;;9.23;3.37;;;0.00;99.90;;;;;;5048836;28;20027;-87
2021/01/26 07:18:59;;;;;;;8.37;3.10;;;0.00;99.90;;;;;;5052746;28;20021;-87
2021/01/26 07:21:39;;;;;;;8.33;4.03;;;0.00;99.90;;;;;;5056996;28;20472;-87
2021/01/26 07:24:11;;;;;;;6.70;2.70;;;0.00;99.90;;;;;;5059682;28;20017;-87
2021/01/26 07:26:51;;;;;;;12.82;3.60;;;0.00;99.90;;;;;;5062744;28;20024;-87
2021/01/26 07:29:24;;;;;;;6.73;3.23;;;0.00;99.90;;;;;;5054979;28;20021;-86
2021/01/26 07:32:00;;;;;;;8.37;3.10;;;0.10;99.90;;;;;;5051714;28;20876;-87
2021/01/26 07:34:35;;;;;;;6.47;3.37;;;0.10;99.90;;;;;;5049221;28;20063;-87
2021/01/26 07:37:22;;;;;;;9.63;3.80;;;0.10;99.90;;;;;;5059043;28;20060;-88
2021/01/26 07:39:52;;;;;;;11.83;3.40;;;0.10;99.90;;;;;;5059535;28;20055;-87
2021/01/26 07:42:25;;;;;;;10.40;3.30;;;0.00;99.90;;;;;;5066874;28;20020;-87
2021/01/26 07:45:04;;;;;;;9.07;3.60;;;0.00;99.90;;;;;;5045221;28;20036;-88
2021/01/26 07:47:35;;;;;;;8.13;3.90;;;0.00;99.90;;;;;;5065769;28;20040;-87
2021/01/26 07:50:27;;;;;;;8.93;3.70;;;0.10;99.90;;;;;;5061211;28;20031;-88
2021/01/26 07:53:05;;;;;;;8.70;3.35;;;0.00;99.90;;;;;;5053878;28;20756;-89
2021/01/26 07:55:39;;;;;;;6.67;3.10;;;0.00;99.90;;;;;;5053648;28;20501;-90
2021/01/26 07:58:09;;;;;;;9.70;4.00;;;0.10;99.90;;;;;;5054226;28;20028;-90
2021/01/26 08:04:10;;;;;;;9.20;3.40;;;0.10;99.90;;;;;;5318611;22;20354;-92
2021/01/26 08:06:36;;;;;;;5.87;2.73;;;0.20;99.90;;;;;;5060173;28;20037;-91
2021/01/26 08:09:05;;;;;;;8.97;3.57;;;0.20;99.90;;;;;;5054834;28;20025;-93
2021/01/26 08:11:34;;;;;;;12.17;3.63;;;0.20;99.90;;;;;;5059681;28;20036;-91
2021/01/26 08:16:57;;;;;;;7.30;2.90;;;0.30;99.90;;;;;;5030146;28;20077;-94
2021/01/26 08:19:50;;;;;;;8.50;2.90;;;0.30;99.90;;;;;;5054965;28;20017;-91
